Terminal Aerodrome Forecast
Issued by NWS

Home | Current Version | Previous Version | Text Only | Print | Product List | Glossary On
Versions: 1 2 3 4 5 6 7 8 9 10 11 12 13 14 15 16 17 18 19 20 21 22 23 24 25 26 27 28 29 30 31 32 33 34 35 36 37 38 39 40
000
FTUS41 KCAR 251900 AAA
TAFHUL
TAF AMD
KHUL 251931Z 2520/2618 35006KT P6SM SCT006 OVC015
     FM252100 35006KT P6SM SCT015 OVC035
     FM252300 VRB03KT P6SM BKN025
     FM260400 13006KT P6SM VCSH BKN008
     FM260800 13005KT 4SM -SHRA OVC008=

USA.gov is the U.S. government's official web portal to all federal, state and local government web resources and services.